Time;durP1;ratioP1;P1;durP2;ratioP2;P2;SDS_P1;SDS_P2;PMS_P1;PMS_P2;Temp;Humidity;BMP_temperature;BMP_pressure;BME280_temperature;BME280_humidity;BME280_pressure;Samples;Min_cycle;Max_cycle;Signal;HPM_P1;HPM_P2
2021/09/23 00:00:21;;;;;;;8.65;3.85;;;11.70;99.90;;;;;;5035974;28;20052;-82
2021/09/23 00:02:49;;;;;;;7.97;4.20;;;11.60;99.90;;;;;;5028996;28;20065;-82
2021/09/23 00:05:24;;;;;;;9.30;4.15;;;11.60;99.90;;;;;;5015894;28;20094;-82
2021/09/23 00:07:51;;;;;;;6.70;4.10;;;11.60;99.90;;;;;;5015895;28;20029;-82
2021/09/23 00:10:23;;;;;;;8.07;4.55;;;11.60;99.90;;;;;;5016816;28;20030;-82
2021/09/23 00:12:50;;;;;;;;;;;11.50;99.90;;;;;;5016399;28;20033;-83
2021/09/23 00:15:16;;;;;;;8.40;4.07;;;11.50;99.90;;;;;;5016155;28;19906;-82
2021/09/23 00:17:49;;;;;;;8.50;3.80;;;11.50;99.90;;;;;;5017305;28;20018;-83
2021/09/23 00:20:23;;;;;;;7.75;4.00;;;11.50;99.90;;;;;;5015282;28;20029;-82
2021/09/23 00:22:49;;;;;;;8.93;3.47;;;11.50;99.90;;;;;;5014960;28;20044;-82
2021/09/23 00:25:15;;;;;;;8.30;3.95;;;11.50;99.90;;;;;;5031151;28;20097;-82
2021/09/23 00:27:41;;;;;;;7.55;3.40;;;11.50;99.90;;;;;;5036591;28;20061;-82
2021/09/23 00:30:08;;;;;;;8.65;4.30;;;11.40;99.90;;;;;;5030822;28;20026;-83
2021/09/23 00:32:34;;;;;;;6.68;3.33;;;11.40;99.90;;;;;;5038320;28;20108;-82
2021/09/23 00:34:59;;;;;;;9.43;3.42;;;11.40;99.90;;;;;;5055834;28;20628;-83
2021/09/23 00:37:25;;;;;;;8.43;4.10;;;11.30;99.90;;;;;;5055089;28;20478;-82
2021/09/23 00:39:51;;;;;;;9.13;4.07;;;11.30;99.90;;;;;;5016308;28;20030;-83
2021/09/23 00:42:17;;;;;;;6.35;3.45;;;11.30;99.90;;;;;;5017225;28;20516;-83
2021/09/23 00:44:56;;;;;;;7.28;4.15;;;11.30;99.90;;;;;;5016676;28;20014;-82
2021/09/23 00:47:22;;;;;;;8.18;4.22;;;11.20;99.90;;;;;;5017896;28;20406;-83
2021/09/23 00:49:49;;;;;;;8.55;3.50;;;11.10;99.90;;;;;;5016035;28;20030;-82
2021/09/23 00:52:15;;;;;;;9.32;4.22;;;11.10;99.90;;;;;;5018014;28;20022;-82
2021/09/23 00:54:41;;;;;;;9.18;3.70;;;11.00;99.90;;;;;;5021237;28;20144;-83
2021/09/23 00:57:06;;;;;;;7.28;4.13;;;11.10;99.90;;;;;;5021741;28;20030;-83
2021/09/23 00:59:32;;;;;;;9.73;3.90;;;11.10;99.90;;;;;;5019330;28;20113;-83
2021/09/23 01:01:57;;;;;;;7.38;4.55;;;11.10;99.90;;;;;;5019992;28;20020;-83
2021/09/23 01:04:23;;;;;;;8.07;4.45;;;11.00;99.90;;;;;;5019941;28;20030;-83
2021/09/23 01:06:51;;;;;;;7.63;4.05;;;11.00;99.90;;;;;;5019377;28;20397;-83
2021/09/23 01:09:17;;;;;;;8.00;4.88;;;11.00;99.90;;;;;;5016944;28;20034;-82
2021/09/23 01:11:43;;;;;;;9.05;4.43;;;11.00;99.90;;;;;;5034552;28;20037;-83
2021/09/23 01:14:11;;;;;;;8.10;4.30;;;11.00;99.90;;;;;;5019016;28;20029;-83
2021/09/23 01:16:37;;;;;;;7.25;4.05;;;11.00;99.90;;;;;;5017385;28;20028;-83
2021/09/23 01:19:04;;;;;;;8.05;4.20;;;11.00;99.90;;;;;;5018093;28;20040;-83
2021/09/23 01:21:30;;;;;;;8.60;3.92;;;10.90;99.90;;;;;;5017463;28;20026;-83
2021/09/23 01:23:55;;;;;;;8.82;4.18;;;10.90;99.90;;;;;;5018129;28;20087;-83
2021/09/23 01:26:29;;;;;;;9.13;4.60;;;10.90;99.90;;;;;;5052827;28;20048;-82
2021/09/23 01:28:57;;;;;;;7.15;3.95;;;10.90;99.90;;;;;;5056326;28;20029;-82
2021/09/23 01:31:23;;;;;;;7.70;4.35;;;10.90;99.90;;;;;;5060182;22;20585;-76
2021/09/23 01:33:49;;;;;;;7.30;4.25;;;10.90;99.90;;;;;;5017665;28;20541;-76
2021/09/23 01:36:15;;;;;;;8.15;4.50;;;10.90;99.90;;;;;;5002331;28;20036;-77
2021/09/23 01:38:42;;;;;;;11.70;4.85;;;10.90;99.90;;;;;;5032255;28;20398;-76
2021/09/23 01:41:08;;;;;;;9.13;4.85;;;10.90;99.90;;;;;;5014342;28;20098;-76
2021/09/23 01:43:33;;;;;;;7.72;5.20;;;10.90;99.90;;;;;;5006392;28;20554;-76
2021/09/23 01:45:59;;;;;;;10.57;4.53;;;10.90;99.90;;;;;;4975103;28;20050;-76
2021/09/23 01:48:24;;;;;;;7.68;4.63;;;10.80;99.90;;;;;;4980008;28;20032;-76
2021/09/23 01:50:50;;;;;;;9.82;4.97;;;10.80;99.90;;;;;;5031302;28;20033;-76
2021/09/23 01:53:16;;;;;;;9.18;4.93;;;10.80;99.90;;;;;;5009839;28;20080;-76
2021/09/23 01:55:42;;;;;;;9.25;4.65;;;10.70;99.90;;;;;;4992717;28;20411;-76
2021/09/23 01:58:07;;;;;;;8.93;4.57;;;10.70;99.90;;;;;;4992695;28;20087;-76
2021/09/23 02:00:33;;;;;;;7.80;4.50;;;10.70;99.90;;;;;;4998171;28;20026;-76
2021/09/23 02:02:59;;;;;;;9.18;4.30;;;10.70;99.90;;;;;;4989060;28;20033;-77
2021/09/23 02:05:25;;;;;;;9.57;4.60;;;10.70;99.90;;;;;;4999418;28;20034;-76
2021/09/23 02:07:50;;;;;;;10.45;5.05;;;10.60;99.90;;;;;;5012197;28;20052;-76
2021/09/23 02:10:16;;;;;;;8.70;4.53;;;10.60;99.90;;;;;;4996401;28;20027;-76
2021/09/23 02:12:42;;;;;;;8.60;4.93;;;10.50;99.90;;;;;;4992401;28;20048;-76
2021/09/23 02:15:09;;;;;;;8.60;4.55;;;10.40;99.90;;;;;;4992534;28;20090;-76
2021/09/23 02:17:35;;;;;;;7.07;4.57;;;10.30;99.90;;;;;;4993662;28;20060;-76
2021/09/23 02:20:00;;;;;;;11.40;4.55;;;10.30;99.90;;;;;;4993741;28;20494;-76
2021/09/23 02:22:26;;;;;;;7.22;4.60;;;10.30;99.90;;;;;;4992061;28;20038;-76
2021/09/23 02:24:53;;;;;;;9.57;5.20;;;10.30;99.90;;;;;;4997476;28;20101;-76
2021/09/23 02:27:20;;;;;;;10.63;5.05;;;10.30;99.90;;;;;;5013372;28;20061;-76
2021/09/23 02:29:45;;;;;;;12.07;4.70;;;10.30;99.90;;;;;;4996980;28;20062;-76
2021/09/23 02:32:11;;;;;;;9.80;5.32;;;10.40;99.90;;;;;;4995878;28;20045;-76
2021/09/23 02:34:37;;;;;;;12.48;4.55;;;10.40;99.90;;;;;;4997092;28;20593;-76
2021/09/23 02:37:03;;;;;;;10.20;4.80;;;10.40;99.90;;;;;;5010133;28;20426;-76
2021/09/23 02:39:29;;;;;;;7.85;4.43;;;10.40;99.90;;;;;;4995841;28;20023;-76
2021/09/23 02:41:55;;;;;;;9.95;5.30;;;10.50;99.90;;;;;;4978393;28;20073;-76
2021/09/23 02:44:20;;;;;;;10.02;4.82;;;10.50;99.90;;;;;;4996374;28;20045;-76
2021/09/23 02:46:47;;;;;;;9.23;4.88;;;10.50;99.90;;;;;;4996252;28;20030;-76
2021/09/23 02:49:12;;;;;;;7.68;4.47;;;10.50;99.90;;;;;;4994435;28;20026;-76
2021/09/23 02:51:38;;;;;;;9.10;4.85;;;10.40;99.90;;;;;;4995073;28;20037;-77
2021/09/23 02:54:04;;;;;;;7.53;4.20;;;10.40;99.90;;;;;;4995964;28;20436;-76
2021/09/23 02:56:30;;;;;;;9.73;4.43;;;10.40;99.90;;;;;;4978356;28;20169;-76
2021/09/23 02:58:55;;;;;;;9.25;4.70;;;10.40;99.90;;;;;;4995812;28;20152;-77
2021/09/23 03:01:22;;;;;;;7.82;4.60;;;10.40;99.90;;;;;;4977997;28;20030;-76
2021/09/23 03:03:48;;;;;;;10.75;4.90;;;10.40;99.90;;;;;;4996062;28;20030;-77
2021/09/23 03:06:15;;;;;;;8.00;4.70;;;10.40;99.90;;;;;;4996305;28;20041;-77
2021/09/23 03:08:40;;;;;;;10.63;4.72;;;10.40;99.90;;;;;;4995671;28;20069;-76
2021/09/23 03:11:07;;;;;;;10.85;5.13;;;10.30;99.90;;;;;;5015564;28;20018;-76
2021/09/23 03:13:32;;;;;;;10.45;4.90;;;10.30;99.90;;;;;;4995847;28;20058;-76
2021/09/23 03:15:58;;;;;;;8.77;4.88;;;10.30;99.90;;;;;;4993956;28;20058;-77
2021/09/23 03:18:24;;;;;;;9.60;5.57;;;10.30;99.90;;;;;;4994302;28;20022;-76
2021/09/23 03:20:50;;;;;;;9.18;4.88;;;10.20;99.90;;;;;;4993967;28;20092;-76
2021/09/23 03:23:16;;;;;;;12.50;4.97;;;10.20;99.90;;;;;;4994287;28;20447;-77
2021/09/23 03:25:43;;;;;;;10.80;5.43;;;10.20;99.90;;;;;;4988004;28;20032;-76
2021/09/23 03:28:09;;;;;;;9.32;5.75;;;10.20;99.90;;;;;;4988929;28;20031;-77
2021/09/23 03:30:35;;;;;;;9.80;5.80;;;10.10;99.90;;;;;;4993851;28;20026;-76
2021/09/23 03:33:05;;;;;;;10.07;4.93;;;10.10;99.90;;;;;;4976758;28;20442;-77
2021/09/23 03:35:32;;;;;;;13.10;5.72;;;10.10;99.90;;;;;;4994778;28;20480;-76
2021/09/23 03:37:58;;;;;;;11.65;6.40;;;10.10;99.90;;;;;;4993729;28;20058;-77
2021/09/23 03:40:25;;;;;;;10.38;6.05;;;10.20;99.90;;;;;;4993335;28;20080;-77
2021/09/23 03:42:51;;;;;;;8.93;5.35;;;10.10;99.90;;;;;;4993865;28;20101;-76
2021/09/23 03:45:17;;;;;;;8.68;4.93;;;10.20;99.90;;;;;;4994426;28;20483;-76
2021/09/23 03:47:44;;;;;;;9.05;5.45;;;10.10;99.90;;;;;;4992658;28;20018;-77
2021/09/23 03:50:11;;;;;;;10.00;5.90;;;10.00;99.90;;;;;;4993490;28;20034;-77
2021/09/23 03:52:37;;;;;;;11.70;6.00;;;10.00;99.90;;;;;;4993806;28;20458;-77
2021/09/23 03:55:04;;;;;;;10.00;5.50;;;10.00;99.90;;;;;;4976139;28;20026;-76
2021/09/23 03:57:30;;;;;;;10.65;6.25;;;10.00;99.90;;;;;;4976300;28;20029;-76
2021/09/23 03:59:56;;;;;;;9.80;6.13;;;10.00;99.90;;;;;;4993511;28;20022;-76
2021/09/23 04:02:23;;;;;;;12.82;6.97;;;10.00;99.90;;;;;;4993964;28;20112;-77
2021/09/23 04:04:48;;;;;;;11.75;7.00;;;9.90;99.90;;;;;;4993699;28;20398;-77
2021/09/23 04:07:14;;;;;;;10.88;6.60;;;9.90;99.90;;;;;;4993897;28;20514;-77
2021/09/23 04:09:39;;;;;;;14.77;6.80;;;9.90;99.90;;;;;;5009143;28;20036;-77
2021/09/23 04:12:05;;;;;;;14.82;7.43;;;9.90;99.90;;;;;;5021979;28;20034;-77
2021/09/23 04:14:31;;;;;;;11.68;6.47;;;9.90;99.90;;;;;;5000808;28;20037;-77
2021/09/23 04:16:57;;;;;;;11.13;5.70;;;9.90;99.90;;;;;;5001816;28;20482;-77
2021/09/23 04:19:23;;;;;;;11.48;6.35;;;9.90;99.90;;;;;;5004162;28;20474;-76
2021/09/23 04:21:48;;;;;;;9.48;6.30;;;9.90;99.90;;;;;;5005717;28;20033;-77
2021/09/23 04:24:14;;;;;;;11.65;6.22;;;10.00;99.90;;;;;;4987205;28;20037;-77
2021/09/23 04:26:40;;;;;;;12.48;6.43;;;10.00;99.90;;;;;;4993610;28;20034;-77
2021/09/23 04:29:09;;;;;;;9.27;5.43;;;10.00;99.90;;;;;;4988263;28;20022;-77
2021/09/23 04:31:34;;;;;;;9.25;5.68;;;9.90;99.90;;;;;;5026293;28;20089;-77
2021/09/23 04:34:00;;;;;;;9.57;5.97;;;9.90;99.90;;;;;;5026694;28;20501;-76
2021/09/23 04:36:26;;;;;;;13.55;5.45;;;9.90;99.90;;;;;;5023005;28;20399;-76
2021/09/23 04:38:53;;;;;;;9.68;5.80;;;9.80;99.90;;;;;;5012114;28;20029;-77
2021/09/23 04:41:18;;;;;;;10.07;6.65;;;9.80;99.90;;;;;;5029369;28;20029;-76
2021/09/23 04:43:46;;;;;;;11.90;7.55;;;9.90;99.90;;;;;;5010384;28;20025;-76
2021/09/23 04:46:12;;;;;;;13.48;7.63;;;9.90;99.90;;;;;;5022240;28;20064;-76
2021/09/23 04:48:38;;;;;;;11.68;7.28;;;9.80;99.90;;;;;;5028603;28;20413;-76
2021/09/23 04:51:04;;;;;;;13.90;7.55;;;9.80;99.90;;;;;;5008550;28;20548;-75
2021/09/23 04:53:29;;;;;;;13.05;7.25;;;9.80;99.90;;;;;;5028870;28;20026;-76
2021/09/23 04:55:55;;;;;;;11.43;7.25;;;9.70;99.90;;;;;;5026369;28;20482;-76
2021/09/23 04:58:21;;;;;;;12.95;7.55;;;9.70;99.90;;;;;;5013595;28;20042;-77
2021/09/23 05:00:46;;;;;;;13.63;7.25;;;9.70;99.90;;;;;;5005159;28;20033;-76
2021/09/23 05:03:14;;;;;;;11.82;7.35;;;9.70;99.90;;;;;;4996807;28;20660;-76
2021/09/23 05:05:40;;;;;;;15.82;7.60;;;9.80;99.90;;;;;;5024216;28;20033;-76
2021/09/23 05:08:06;;;;;;;12.52;7.75;;;9.80;99.90;;;;;;5016070;28;20055;-76
2021/09/23 05:10:36;;;;;;;14.77;7.70;;;9.70;99.90;;;;;;5003567;28;20037;-76
2021/09/23 05:13:03;;;;;;;13.57;7.10;;;9.60;99.90;;;;;;5020252;28;20022;-76
2021/09/23 05:15:29;;;;;;;10.95;6.53;;;9.60;99.90;;;;;;4986555;28;20029;-76
2021/09/23 05:17:55;;;;;;;13.50;7.15;;;9.70;99.90;;;;;;5021676;28;20034;-76
2021/09/23 05:20:21;;;;;;;15.02;8.07;;;9.70;99.90;;;;;;5020590;28;20156;-76
2021/09/23 05:22:46;;;;;;;13.55;7.18;;;9.70;99.90;;;;;;5003837;28;20033;-76
2021/09/23 05:25:12;;;;;;;16.70;8.48;;;9.70;99.90;;;;;;5019843;28;20039;-76
2021/09/23 05:27:39;;;;;;;15.70;8.43;;;9.80;99.90;;;;;;5012220;28;20027;-76
2021/09/23 05:30:07;;;;;;;14.98;6.78;;;9.70;99.90;;;;;;5005575;28;20108;-76
2021/09/23 05:32:33;;;;;;;15.43;7.10;;;9.70;99.90;;;;;;4999268;28;20022;-76
2021/09/23 05:34:59;;;;;;;16.30;7.32;;;9.80;99.90;;;;;;4991654;28;20505;-77
2021/09/23 05:37:24;;;;;;;12.05;6.70;;;9.80;99.90;;;;;;5006055;28;20035;-77
2021/09/23 05:39:50;;;;;;;12.93;6.65;;;9.80;99.90;;;;;;4998501;28;20458;-77
2021/09/23 05:42:15;;;;;;;12.88;7.43;;;9.80;99.90;;;;;;4998124;28;20108;-77
2021/09/23 05:44:41;;;;;;;13.48;7.32;;;9.70;99.90;;;;;;4984133;28;20097;-77
2021/09/23 05:47:07;;;;;;;12.82;8.00;;;9.70;99.90;;;;;;4997671;28;20308;-77
2021/09/23 05:49:32;;;;;;;12.98;6.88;;;9.70;99.90;;;;;;5006036;28;20110;-77
2021/09/23 05:51:59;;;;;;;14.20;7.15;;;9.70;99.90;;;;;;4996911;28;20641;-77
2021/09/23 05:54:25;;;;;;;13.80;6.70;;;9.70;99.90;;;;;;5023598;28;20041;-77
2021/09/23 05:56:51;;;;;;;12.00;7.00;;;9.80;99.90;;;;;;5012161;28;20506;-77
2021/09/23 05:59:18;;;;;;;12.68;7.20;;;9.80;99.90;;;;;;4991811;28;20030;-78
2021/09/23 06:01:43;;;;;;;11.77;6.65;;;9.80;99.90;;;;;;5010919;28;20550;-78
2021/09/23 06:04:10;;;;;;;14.93;7.38;;;9.80;99.90;;;;;;5011739;28;20061;-77
2021/09/23 06:06:36;;;;;;;13.05;7.30;;;9.80;99.90;;;;;;5011519;28;20088;-77
2021/09/23 06:09:03;;;;;;;12.63;7.65;;;9.80;99.90;;;;;;5017789;28;20029;-77
2021/09/23 06:11:29;;;;;;;13.27;7.22;;;9.80;99.90;;;;;;5025936;28;20116;-78
2021/09/23 06:13:55;;;;;;;12.73;7.30;;;9.80;99.90;;;;;;5021082;28;20037;-77
2021/09/23 06:16:21;;;;;;;14.77;7.20;;;9.80;99.90;;;;;;5019415;28;20029;-77
2021/09/23 06:18:47;;;;;;;13.02;7.90;;;9.80;99.90;;;;;;5008537;28;20033;-77
2021/09/23 06:21:13;;;;;;;15.27;8.27;;;9.90;99.90;;;;;;5009045;28;20514;-76
2021/09/23 06:23:39;;;;;;;13.25;7.45;;;10.00;99.90;;;;;;5025134;28;20037;-77
2021/09/23 06:26:05;;;;;;;16.95;7.85;;;10.10;99.90;;;;;;5022792;28;20028;-77
2021/09/23 06:28:31;;;;;;;12.57;7.10;;;10.20;99.90;;;;;;5020337;28;20494;-77
2021/09/23 06:30:58;;;;;;;19.00;8.30;;;10.30;99.90;;;;;;5020282;28;20072;-77
2021/09/23 06:33:24;;;;;;;15.02;7.97;;;10.30;99.90;;;;;;5024397;28;20025;-76
2021/09/23 06:35:50;;;;;;;10.95;6.85;;;10.40;99.90;;;;;;5005281;28;20071;-76
2021/09/23 06:38:15;;;;;;;13.43;7.13;;;10.50;99.90;;;;;;5024794;28;20096;-77
2021/09/23 06:40:41;;;;;;;12.80;7.30;;;10.70;99.90;;;;;;5007000;28;20114;-77
2021/09/23 06:43:07;;;;;;;17.95;8.70;;;10.80;99.90;;;;;;5013290;28;20068;-76
2021/09/23 06:45:32;;;;;;;15.63;6.85;;;11.00;99.90;;;;;;4991909;28;20045;-77
2021/09/23 06:47:58;;;;;;;13.50;6.88;;;11.10;99.90;;;;;;4995431;28;20588;-76
2021/09/23 06:50:24;;;;;;;11.80;6.63;;;11.20;99.90;;;;;;4990455;28;20033;-77
2021/09/23 06:52:50;;;;;;;12.55;6.28;;;11.40;99.90;;;;;;4977785;28;20034;-76
2021/09/23 06:55:15;;;;;;;11.40;6.05;;;11.50;99.90;;;;;;4990875;28;20030;-79
2021/09/23 06:57:44;;;;;;;11.90;6.32;;;11.60;99.90;;;;;;4984092;28;20135;-79
2021/09/23 07:00:10;;;;;;;11.65;6.28;;;11.70;99.90;;;;;;5011207;28;20036;-79
2021/09/23 07:02:40;;;;;;;12.70;6.20;;;11.90;99.90;;;;;;4994332;28;20029;-79
2021/09/23 07:05:06;;;;;;;13.60;6.57;;;12.10;99.90;;;;;;4993971;28;20026;-79
2021/09/23 07:07:32;;;;;;;11.77;6.32;;;12.20;99.90;;;;;;4989125;28;20034;-79
2021/09/23 07:10:00;;;;;;;11.93;6.38;;;12.20;99.90;;;;;;4991308;28;20029;-79
2021/09/23 07:12:26;;;;;;;10.82;6.35;;;12.10;99.90;;;;;;4996718;28;20037;-79
2021/09/23 07:14:53;;;;;;;11.57;6.63;;;12.10;99.90;;;;;;4995667;28;20028;-79
2021/09/23 07:17:19;;;;;;;14.05;6.22;;;11.90;99.90;;;;;;5014055;28;20030;-79
2021/09/23 07:19:46;;;;;;;13.30;6.05;;;11.90;99.90;;;;;;4992172;28;20046;-79
2021/09/23 07:22:13;;;;;;;14.68;6.30;;;11.90;99.90;;;;;;4997647;28;20022;-79
2021/09/23 07:24:39;;;;;;;10.30;5.45;;;12.10;99.90;;;;;;5014316;28;20450;-78
2021/09/23 07:27:05;;;;;;;13.55;6.07;;;12.20;99.90;;;;;;5013631;28;20026;-79
2021/09/23 07:29:31;;;;;;;15.73;5.82;;;12.30;99.90;;;;;;5003072;28;20034;-79
2021/09/23 07:31:58;;;;;;;15.00;5.50;;;12.40;99.90;;;;;;5005991;28;20038;-78
2021/09/23 07:34:24;;;;;;;14.65;5.57;;;12.40;99.90;;;;;;5021990;28;20022;-79
2021/09/23 07:36:50;;;;;;;12.60;6.25;;;12.50;99.90;;;;;;5007473;28;20037;-78
2021/09/23 07:39:16;;;;;;;13.50;6.00;;;12.70;99.90;;;;;;4992502;28;20034;-79
2021/09/23 07:41:44;;;;;;;10.10;6.00;;;12.90;99.90;;;;;;4997828;28;20032;-79
2021/09/23 07:44:11;;;;;;;12.68;5.30;;;13.00;99.90;;;;;;4997600;28;20029;-79
2021/09/23 07:46:37;;;;;;;15.13;5.53;;;13.10;99.90;;;;;;5006299;28;20029;-79
2021/09/23 07:49:04;;;;;;;10.65;5.53;;;13.20;99.90;;;;;;4994971;28;20550;-79
2021/09/23 07:51:30;;;;;;;10.10;5.40;;;13.20;99.90;;;;;;4995529;28;20018;-77
2021/09/23 07:53:56;;;;;;;15.00;7.20;;;13.10;99.90;;;;;;4994135;28;20383;-77
2021/09/23 07:56:22;;;;;;;11.70;6.25;;;13.10;99.90;;;;;;4994948;28;20037;-78
2021/09/23 07:58:49;;;;;;;11.25;5.82;;;13.20;99.90;;;;;;4994788;28;20179;-78
2021/09/23 08:01:15;;;;;;;16.30;5.88;;;13.20;99.90;;;;;;4994187;28;20034;-79
2021/09/23 08:03:41;;;;;;;12.00;5.50;;;13.40;99.90;;;;;;4996506;28;20069;-79
2021/09/23 08:06:07;;;;;;;10.82;4.82;;;13.40;99.90;;;;;;5017520;28;20088;-78
2021/09/23 08:08:33;;;;;;;10.15;5.57;;;13.60;99.90;;;;;;5006649;28;20030;-78
2021/09/23 08:11:00;;;;;;;10.15;5.43;;;13.60;99.90;;;;;;5033152;28;20025;-79
2021/09/23 08:13:26;;;;;;;8.55;5.03;;;13.80;99.90;;;;;;5029077;28;20087;-78
2021/09/23 08:15:51;;;;;;;18.45;6.75;;;13.90;99.90;;;;;;5031729;28;20021;-78
2021/09/23 08:18:19;;;;;;;11.63;4.65;;;14.00;99.90;;;;;;5029307;28;20479;-78
2021/09/23 08:20:45;;;;;;;8.18;4.72;;;14.00;99.90;;;;;;5031585;28;20028;-78
2021/09/23 08:23:10;;;;;;;9.15;4.55;;;14.20;99.90;;;;;;5029966;28;20116;-78
2021/09/23 08:25:36;;;;;;;7.82;4.65;;;14.30;99.90;;;;;;5030490;28;20072;-79
2021/09/23 08:28:01;;;;;;;10.45;4.47;;;14.50;99.90;;;;;;5032566;28;20057;-80
2021/09/23 08:30:27;;;;;;;9.00;3.95;;;14.60;99.90;;;;;;4997515;28;20061;-80
2021/09/23 08:32:53;;;;;;;8.95;4.22;;;14.70;99.90;;;;;;5004256;28;20536;-80
2021/09/23 08:35:19;;;;;;;8.50;4.32;;;14.80;99.90;;;;;;5016100;28;20826;-80
2021/09/23 08:37:45;;;;;;;10.68;4.20;;;15.00;99.90;;;;;;5007149;28;20033;-79
2021/09/23 08:40:13;;;;;;;9.35;4.15;;;15.30;99.90;;;;;;5011577;28;20435;-80
2021/09/23 08:42:40;;;;;;;7.68;4.07;;;15.30;99.90;;;;;;4990172;28;20036;-79
2021/09/23 08:45:07;;;;;;;10.38;4.75;;;15.50;99.90;;;;;;5027493;28;20029;-79
2021/09/23 08:47:33;;;;;;;11.27;3.63;;;15.50;99.90;;;;;;4998977;28;20427;-78
2021/09/23 08:50:00;;;;;;;6.28;3.53;;;15.70;99.90;;;;;;5021476;28;20026;-79
2021/09/23 08:52:28;;;;;;;7.15;3.60;;;15.80;99.90;;;;;;5017986;28;20032;-79
2021/09/23 08:54:53;;;;;;;8.93;3.15;;;15.80;99.90;;;;;;5030863;28;20386;-79
2021/09/23 08:57:19;;;;;;;5.70;2.80;;;16.00;99.90;;;;;;5007607;28;20025;-79
2021/09/23 08:59:45;;;;;;;9.65;3.05;;;15.90;99.90;;;;;;5026618;28;20410;-79
2021/09/23 09:02:30;;;;;;;6.05;2.97;;;16.10;99.90;;;;;;5026720;28;20068;-79
2021/09/23 09:04:56;;;;;;;6.80;2.65;;;16.20;99.90;;;;;;5026562;28;20034;-79
2021/09/23 09:07:28;;;;;;;4.53;2.20;;;16.40;99.90;;;;;;5011291;28;20021;-79
2021/09/23 09:10:06;;;;;;;8.93;2.83;;;16.60;99.90;;;;;;5011328;28;20056;-78
2021/09/23 09:12:32;;;;;;;6.28;3.17;;;16.60;99.90;;;;;;5019967;28;20025;-78
2021/09/23 09:14:59;;;;;;;7.68;2.60;;;16.40;99.90;;;;;;5029096;28;20025;-78
2021/09/23 09:17:25;;;;;;;5.60;2.53;;;16.50;99.90;;;;;;5025833;28;20486;-77
2021/09/23 09:19:59;;;;;;;6.68;2.78;;;16.60;99.90;;;;;;5006053;28;20055;-78
2021/09/23 09:22:27;;;;;;;6.00;2.25;;;16.90;99.90;;;;;;5009749;28;20029;-80
2021/09/23 09:24:58;;;;;;;5.72;2.35;;;17.00;99.90;;;;;;5008555;28;20022;-79
2021/09/23 09:27:37;;;;;;;4.38;1.88;;;17.10;99.90;;;;;;5008975;28;20024;-80
2021/09/23 09:30:13;;;;;;;8.00;2.60;;;17.00;99.90;;;;;;5019435;28;20022;-78
2021/09/23 09:32:51;;;;;;;5.75;2.50;;;17.10;99.90;;;;;;5026003;28;20033;-79
2021/09/23 09:35:19;;;;;;;5.03;2.95;;;17.30;99.90;;;;;;5027354;28;20032;-79
2021/09/23 09:37:51;;;;;;;5.28;2.90;;;17.30;99.90;;;;;;5031061;28;20017;-80
2021/09/23 09:40:34;;;;;;;;;;;17.40;99.90;;;;;;5033534;28;20023;-81
2021/09/23 09:43:06;;;;;;;6.03;2.40;;;17.30;99.90;;;;;;5019279;28;19917;-81
2021/09/23 09:45:32;;;;;;;6.05;2.53;;;17.40;99.90;;;;;;5031620;28;20025;-82
2021/09/23 09:47:59;;;;;;;5.40;2.58;;;17.30;99.90;;;;;;5029117;28;20025;-82
2021/09/23 09:50:28;;;;;;;9.73;2.70;;;17.30;99.90;;;;;;5020938;28;20018;-80
2021/09/23 09:52:57;;;;;;;5.30;2.28;;;17.40;99.90;;;;;;5026763;28;20105;-80
2021/09/23 09:55:28;;;;;;;4.47;1.92;;;17.60;99.90;;;;;;5012853;28;20025;-80
2021/09/23 09:57:54;;;;;;;7.75;1.88;;;17.70;99.90;;;;;;5031278;28;20060;-81
2021/09/23 10:00:21;;;;;;;3.97;1.95;;;18.00;99.90;;;;;;5032040;28;20029;-80
2021/09/23 10:02:47;;;;;;;6.15;2.25;;;17.90;99.90;;;;;;5023680;28;20035;-79
2021/09/23 10:05:15;;;;;;;4.75;2.10;;;18.00;99.90;;;;;;5010008;28;20025;-79
2021/09/23 10:07:44;;;;;;;5.53;2.13;;;18.20;99.90;;;;;;5004107;28;20109;-80
2021/09/23 10:10:11;;;;;;;6.53;2.00;;;18.50;99.90;;;;;;5025153;28;20021;-80
2021/09/23 10:12:40;;;;;;;4.32;1.83;;;18.60;99.90;;;;;;5020409;28;20502;-81
2021/09/23 10:15:14;;;;;;;4.35;1.60;;;18.50;99.90;;;;;;4994684;28;20037;-80
2021/09/23 10:17:44;;;;;;;4.60;1.90;;;18.50;99.90;;;;;;5027025;28;20025;-80
2021/09/23 10:20:11;;;;;;;5.15;1.77;;;18.40;99.90;;;;;;5025518;28;20036;-81
2021/09/23 10:22:40;;;;;;;3.70;2.03;;;18.70;99.90;;;;;;5028711;28;20041;-80
2021/09/23 10:25:09;;;;;;;5.40;1.85;;;18.50;99.90;;;;;;5026093;28;20017;-80
2021/09/23 10:30:20;;;;;;;6.53;2.10;;;18.50;99.90;;;;;;5028747;28;20029;-80
2021/09/23 10:32:47;;;;;;;4.85;1.88;;;18.50;99.90;;;;;;4988134;28;20034;-81
2021/09/23 10:35:22;;;;;;;3.17;1.40;;;18.70;99.90;;;;;;5022169;28;20029;-82
2021/09/23 10:37:56;;;;;;;3.40;1.50;;;18.90;99.90;;;;;;5027398;28;20018;-82
2021/09/23 10:40:22;;;;;;;4.13;1.30;;;19.20;99.90;;;;;;5011374;28;20028;-82
2021/09/23 10:42:52;;;;;;;5.22;1.55;;;19.30;99.90;;;;;;5014701;28;20101;-82
2021/09/23 10:45:19;;;;;;;4.43;1.63;;;19.10;99.90;;;;;;5010573;28;20057;-83
2021/09/23 10:47:49;;;;;;;3.72;1.15;;;19.40;99.90;;;;;;4995942;28;20040;-82
2021/09/23 10:50:24;;;;;;;5.65;1.60;;;19.40;99.90;;;;;;5016092;28;20033;-82
2021/09/23 10:52:51;;;;;;;2.72;1.20;;;19.60;99.90;;;;;;4996517;28;20034;-82
2021/09/23 10:55:18;;;;;;;3.88;1.23;;;19.60;99.90;;;;;;4979539;28;20380;-82
2021/09/23 10:57:45;;;;;;;3.65;1.27;;;19.70;99.90;;;;;;4990216;28;20040;-82
2021/09/23 11:00:11;;;;;;;5.97;2.97;;;20.00;99.90;;;;;;5002922;28;20041;-82
2021/09/23 11:02:40;;;;;;;3.63;1.45;;;20.00;99.90;;;;;;4991420;28;20030;-82
2021/09/23 11:05:11;;;;;;;3.25;1.17;;;20.10;99.90;;;;;;5004718;28;20030;-82
2021/09/23 11:07:43;;;;;;;3.88;1.30;;;20.40;99.30;;;;;;5027686;28;20045;-82
2021/09/23 11:10:21;;;;;;;3.90;1.10;;;20.50;99.10;;;;;;5002299;28;20034;-82
2021/09/23 11:12:53;;;;;;;3.35;1.60;;;20.90;99.30;;;;;;5008944;28;20026;-82
2021/09/23 11:15:22;;;;;;;3.30;1.38;;;21.10;98.70;;;;;;5005132;28;20125;-82
2021/09/23 11:17:49;;;;;;;3.22;1.13;;;21.10;97.60;;;;;;5003258;28;20155;-82
2021/09/23 11:20:22;;;;;;;2.58;1.00;;;21.30;97.80;;;;;;4995767;28;20501;-83
2021/09/23 11:22:53;;;;;;;2.83;1.15;;;21.40;97.70;;;;;;5007657;28;20029;-82
2021/09/23 11:25:28;;;;;;;4.82;1.27;;;21.50;97.40;;;;;;5019848;28;20022;-82
2021/09/23 11:27:55;;;;;;;2.80;1.00;;;21.60;96.90;;;;;;5002412;28;20021;-82
2021/09/23 11:30:25;;;;;;;2.90;1.00;;;21.80;96.20;;;;;;5026902;28;20045;-84
2021/09/23 11:32:52;;;;;;;2.10;0.80;;;22.00;95.60;;;;;;5002049;28;20079;-83
2021/09/23 11:35:20;;;;;;;2.53;0.80;;;22.20;95.30;;;;;;5004382;28;20037;-83
2021/09/23 11:37:46;;;;;;;2.90;1.20;;;22.30;93.10;;;;;;5005066;28;20037;-83
2021/09/23 11:40:18;;;;;;;3.30;1.08;;;22.30;92.40;;;;;;5016864;28;20037;-83
2021/09/23 11:42:44;;;;;;;1.98;0.93;;;21.90;93.20;;;;;;5023331;28;20040;-83
2021/09/23 11:45:19;;;;;;;3.55;0.95;;;21.70;93.60;;;;;;4988830;28;20410;-83
2021/09/23 11:47:57;;;;;;;2.80;1.00;;;21.80;93.10;;;;;;5012617;28;20058;-83
2021/09/23 11:50:43;;;;;;;2.25;1.02;;;22.00;92.60;;;;;;5006794;28;20025;-82
2021/09/23 11:53:16;;;;;;;2.33;1.00;;;22.20;92.40;;;;;;5028856;28;20033;-82
2021/09/23 11:55:54;;;;;;;3.05;1.02;;;22.10;92.00;;;;;;5030079;28;20097;-82
2021/09/23 11:58:20;;;;;;;3.33;1.20;;;22.30;92.70;;;;;;5015229;28;20156;-81
2021/09/23 12:00:48;;;;;;;3.03;1.00;;;22.40;91.60;;;;;;5026682;28;20107;-81
2021/09/23 12:03:15;;;;;;;2.85;0.93;;;22.60;91.90;;;;;;5028464;28;20063;-81
2021/09/23 12:05:41;;;;;;;2.90;0.90;;;22.70;90.80;;;;;;5012571;28;20031;-81
2021/09/23 12:08:17;;;;;;;2.83;1.20;;;22.80;90.30;;;;;;5008309;28;20446;-81
2021/09/23 12:10:52;;;;;;;2.88;1.02;;;22.90;90.50;;;;;;5028562;28;20454;-81
2021/09/23 12:13:24;;;;;;;3.85;1.35;;;22.90;91.00;;;;;;5008869;28;20033;-81
2021/09/23 12:15:54;;;;;;;5.32;1.30;;;23.20;90.40;;;;;;5026804;28;20113;-81
2021/09/23 12:18:23;;;;;;;4.47;1.10;;;23.30;90.30;;;;;;5020564;28;20033;-81
2021/09/23 12:20:50;;;;;;;3.90;1.23;;;23.50;89.70;;;;;;5003309;28;20513;-81
2021/09/23 12:23:27;;;;;;;3.10;1.10;;;23.50;88.70;;;;;;5010647;28;20037;-80
2021/09/23 12:26:14;;;;;;;4.07;1.20;;;23.50;87.30;;;;;;5013776;28;20067;-81
2021/09/23 12:28:57;;;;;;;2.47;1.10;;;23.60;86.00;;;;;;4990280;28;20501;-81
2021/09/23 12:31:31;;;;;;;2.80;1.00;;;23.70;85.30;;;;;;5019397;28;20030;-80
2021/09/23 12:34:03;;;;;;;2.67;1.02;;;23.80;85.60;;;;;;5017656;28;20133;-84
2021/09/23 12:36:36;;;;;;;3.38;1.23;;;23.90;85.80;;;;;;5026520;28;20021;-82
2021/09/23 12:39:16;;;;;;;3.70;1.30;;;23.90;87.40;;;;;;5001920;28;20029;-80
2021/09/23 12:41:57;;;;;;;5.97;1.63;;;23.90;85.70;;;;;;4993677;28;20188;-81
2021/09/23 12:44:25;;;;;;;2.65;0.82;;;24.00;84.90;;;;;;5008290;28;20026;-81
2021/09/23 12:47:20;;;;;;;1.95;0.93;;;24.20;82.60;;;;;;5033122;28;20040;-81
2021/09/23 12:49:49;;;;;;;3.05;1.13;;;23.80;83.20;;;;;;4985518;28;20604;-80